sensor_id;sensor_type;location;lat;lon;timestamp;P1;durP1;ratioP1;P2;durP2;ratioP2
17404;SDS011;8820;54.604;18.226;2024-02-14T00:01:50;10.37;;;6.53;;
17404;SDS011;8820;54.604;18.226;2024-02-14T00:04:19;9.10;;;6.33;;
17404;SDS011;8820;54.604;18.226;2024-02-14T00:06:47;9.60;;;6.50;;
17404;SDS011;8820;54.604;18.226;2024-02-14T00:09:16;12.07;;;6.47;;
17404;SDS011;8820;54.604;18.226;2024-02-14T00:11:44;12.23;;;7.17;;
17404;SDS011;8820;54.604;18.226;2024-02-14T00:14:13;8.73;;;6.60;;
17404;SDS011;8820;54.604;18.226;2024-02-14T00:16:42;17.43;;;7.47;;
17404;SDS011;8820;54.604;18.226;2024-02-14T00:19:10;11.33;;;7.10;;
17404;SDS011;8820;54.604;18.226;2024-02-14T00:21:40;12.73;;;6.97;;
17404;SDS011;8820;54.604;18.226;2024-02-14T00:24:08;10.50;;;7.03;;
17404;SDS011;8820;54.604;18.226;2024-02-14T00:26:38;12.07;;;6.90;;
17404;SDS011;8820;54.604;18.226;2024-02-14T00:29:06;9.67;;;6.73;;
17404;SDS011;8820;54.604;18.226;2024-02-14T00:31:35;11.47;;;7.10;;
17404;SDS011;8820;54.604;18.226;2024-02-14T00:34:03;12.03;;;7.13;;
17404;SDS011;8820;54.604;18.226;2024-02-14T00:36:31;13.63;;;6.77;;
17404;SDS011;8820;54.604;18.226;2024-02-14T00:39:01;8.27;;;6.67;;
17404;SDS011;8820;54.604;18.226;2024-02-14T00:41:29;14.17;;;7.03;;
17404;SDS011;8820;54.604;18.226;2024-02-14T00:43:58;13.07;;;7.17;;
17404;SDS011;8820;54.604;18.226;2024-02-14T00:46:26;13.90;;;6.87;;
17404;SDS011;8820;54.604;18.226;2024-02-14T00:48:54;13.33;;;7.03;;
17404;SDS011;8820;54.604;18.226;2024-02-14T00:51:23;13.37;;;7.07;;
17404;SDS011;8820;54.604;18.226;2024-02-14T00:53:51;10.70;;;6.67;;
17404;SDS011;8820;54.604;18.226;2024-02-14T00:56:21;10.77;;;7.00;;
17404;SDS011;8820;54.604;18.226;2024-02-14T00:58:51;7.87;;;6.53;;
17404;SDS011;8820;54.604;18.226;2024-02-14T01:01:19;8.07;;;6.33;;
17404;SDS011;8820;54.604;18.226;2024-02-14T01:03:48;8.87;;;6.37;;
17404;SDS011;8820;54.604;18.226;2024-02-14T01:06:16;8.90;;;6.87;;
17404;SDS011;8820;54.604;18.226;2024-02-14T01:08:45;9.50;;;6.87;;
17404;SDS011;8820;54.604;18.226;2024-02-14T01:11:13;8.87;;;6.50;;
17404;SDS011;8820;54.604;18.226;2024-02-14T01:13:43;9.77;;;6.87;;
17404;SDS011;8820;54.604;18.226;2024-02-14T01:16:11;15.07;;;8.23;;
17404;SDS011;8820;54.604;18.226;2024-02-14T01:18:40;9.23;;;6.30;;
17404;SDS011;8820;54.604;18.226;2024-02-14T01:21:09;11.90;;;6.73;;
17404;SDS011;8820;54.604;18.226;2024-02-14T01:23:37;12.17;;;7.60;;
17404;SDS011;8820;54.604;18.226;2024-02-14T01:26:06;9.57;;;6.80;;
17404;SDS011;8820;54.604;18.226;2024-02-14T01:28:34;10.97;;;6.60;;
17404;SDS011;8820;54.604;18.226;2024-02-14T01:31:04;11.10;;;7.30;;
17404;SDS011;8820;54.604;18.226;2024-02-14T01:33:32;12.50;;;7.60;;
17404;SDS011;8820;54.604;18.226;2024-02-14T01:36:00;9.10;;;6.83;;
17404;SDS011;8820;54.604;18.226;2024-02-14T01:38:28;13.10;;;7.93;;
17404;SDS011;8820;54.604;18.226;2024-02-14T01:41:02;13.40;;;8.00;;
17404;SDS011;8820;54.604;18.226;2024-02-14T01:43:30;8.93;;;7.33;;
17404;SDS011;8820;54.604;18.226;2024-02-14T01:46:02;10.70;;;7.53;;
17404;SDS011;8820;54.604;18.226;2024-02-14T01:48:34;12.23;;;7.13;;
17404;SDS011;8820;54.604;18.226;2024-02-14T01:51:02;11.07;;;6.73;;
17404;SDS011;8820;54.604;18.226;2024-02-14T01:53:33;10.47;;;7.57;;
17404;SDS011;8820;54.604;18.226;2024-02-14T01:56:05;11.77;;;7.87;;
17404;SDS011;8820;54.604;18.226;2024-02-14T01:58:34;11.17;;;7.43;;
17404;SDS011;8820;54.604;18.226;2024-02-14T02:01:04;12.30;;;8.47;;
17404;SDS011;8820;54.604;18.226;2024-02-14T02:03:34;14.97;;;7.40;;
17404;SDS011;8820;54.604;18.226;2024-02-14T02:06:04;15.90;;;7.80;;
17404;SDS011;8820;54.604;18.226;2024-02-14T02:08:33;14.77;;;8.00;;
17404;SDS011;8820;54.604;18.226;2024-02-14T02:11:02;13.07;;;8.47;;
17404;SDS011;8820;54.604;18.226;2024-02-14T02:13:31;11.20;;;8.00;;
17404;SDS011;8820;54.604;18.226;2024-02-14T02:15:59;13.23;;;7.97;;
17404;SDS011;8820;54.604;18.226;2024-02-14T02:18:33;10.77;;;7.40;;
17404;SDS011;8820;54.604;18.226;2024-02-14T02:21:01;13.13;;;8.60;;
17404;SDS011;8820;54.604;18.226;2024-02-14T02:23:34;12.80;;;8.07;;
17404;SDS011;8820;54.604;18.226;2024-02-14T02:26:03;14.00;;;7.83;;
17404;SDS011;8820;54.604;18.226;2024-02-14T02:28:31;11.77;;;7.57;;
17404;SDS011;8820;54.604;18.226;2024-02-14T02:30:59;11.70;;;8.13;;
17404;SDS011;8820;54.604;18.226;2024-02-14T02:33:28;11.03;;;8.17;;
17404;SDS011;8820;54.604;18.226;2024-02-14T02:35:56;11.17;;;8.97;;
17404;SDS011;8820;54.604;18.226;2024-02-14T02:38:24;12.67;;;8.80;;
17404;SDS011;8820;54.604;18.226;2024-02-14T02:40:54;13.27;;;8.70;;
17404;SDS011;8820;54.604;18.226;2024-02-14T02:43:22;13.07;;;8.60;;
17404;SDS011;8820;54.604;18.226;2024-02-14T02:45:51;14.47;;;8.90;;
17404;SDS011;8820;54.604;18.226;2024-02-14T02:48:19;17.10;;;9.37;;
17404;SDS011;8820;54.604;18.226;2024-02-14T02:50:50;15.13;;;9.80;;
17404;SDS011;8820;54.604;18.226;2024-02-14T02:53:18;10.23;;;8.20;;
17404;SDS011;8820;54.604;18.226;2024-02-14T02:55:47;15.87;;;8.93;;
17404;SDS011;8820;54.604;18.226;2024-02-14T02:58:19;15.70;;;8.33;;
17404;SDS011;8820;54.604;18.226;2024-02-14T03:00:47;12.60;;;7.77;;
17404;SDS011;8820;54.604;18.226;2024-02-14T03:03:16;12.23;;;7.97;;
17404;SDS011;8820;54.604;18.226;2024-02-14T03:05:44;12.07;;;8.10;;
17404;SDS011;8820;54.604;18.226;2024-02-14T03:08:13;11.27;;;7.83;;
17404;SDS011;8820;54.604;18.226;2024-02-14T03:10:42;12.07;;;8.97;;
17404;SDS011;8820;54.604;18.226;2024-02-14T03:13:12;12.70;;;8.87;;
17404;SDS011;8820;54.604;18.226;2024-02-14T03:15:45;14.27;;;9.57;;
17404;SDS011;8820;54.604;18.226;2024-02-14T03:18:14;12.90;;;9.40;;
17404;SDS011;8820;54.604;18.226;2024-02-14T03:20:43;13.60;;;9.70;;
17404;SDS011;8820;54.604;18.226;2024-02-14T03:23:11;13.57;;;9.43;;
17404;SDS011;8820;54.604;18.226;2024-02-14T03:25:41;16.93;;;10.17;;
17404;SDS011;8820;54.604;18.226;2024-02-14T03:28:10;15.60;;;9.80;;
17404;SDS011;8820;54.604;18.226;2024-02-14T03:30:39;13.30;;;9.83;;
17404;SDS011;8820;54.604;18.226;2024-02-14T03:33:09;16.97;;;9.90;;
17404;SDS011;8820;54.604;18.226;2024-02-14T03:35:37;12.83;;;9.27;;
17404;SDS011;8820;54.604;18.226;2024-02-14T03:38:07;14.27;;;9.13;;
17404;SDS011;8820;54.604;18.226;2024-02-14T03:40:36;16.00;;;9.67;;
17404;SDS011;8820;54.604;18.226;2024-02-14T03:43:05;16.10;;;9.23;;
17404;SDS011;8820;54.604;18.226;2024-02-14T03:45:38;12.40;;;9.00;;
17404;SDS011;8820;54.604;18.226;2024-02-14T03:48:07;17.33;;;10.00;;
17404;SDS011;8820;54.604;18.226;2024-02-14T03:50:38;15.17;;;9.03;;
17404;SDS011;8820;54.604;18.226;2024-02-14T03:53:07;14.70;;;9.50;;
17404;SDS011;8820;54.604;18.226;2024-02-14T03:55:37;16.30;;;9.53;;
17404;SDS011;8820;54.604;18.226;2024-02-14T03:58:05;12.20;;;9.53;;
17404;SDS011;8820;54.604;18.226;2024-02-14T04:00:35;12.83;;;9.70;;
17404;SDS011;8820;54.604;18.226;2024-02-14T04:03:03;12.07;;;9.63;;
17404;SDS011;8820;54.604;18.226;2024-02-14T04:05:34;12.63;;;9.37;;
17404;SDS011;8820;54.604;18.226;2024-02-14T04:08:03;12.03;;;8.87;;
17404;SDS011;8820;54.604;18.226;2024-02-14T04:10:36;11.77;;;9.70;;
17404;SDS011;8820;54.604;18.226;2024-02-14T04:13:05;16.20;;;9.67;;
17404;SDS011;8820;54.604;18.226;2024-02-14T04:15:33;11.67;;;9.17;;
17404;SDS011;8820;54.604;18.226;2024-02-14T04:18:02;16.33;;;10.40;;
17404;SDS011;8820;54.604;18.226;2024-02-14T04:20:34;16.53;;;10.13;;
17404;SDS011;8820;54.604;18.226;2024-02-14T04:23:03;14.03;;;9.97;;
17404;SDS011;8820;54.604;18.226;2024-02-14T04:25:33;15.53;;;9.73;;
17404;SDS011;8820;54.604;18.226;2024-02-14T04:28:02;16.33;;;9.90;;
17404;SDS011;8820;54.604;18.226;2024-02-14T04:30:30;14.33;;;9.40;;
17404;SDS011;8820;54.604;18.226;2024-02-14T04:32:59;14.77;;;9.93;;
17404;SDS011;8820;54.604;18.226;2024-02-14T04:35:27;15.37;;;10.33;;
17404;SDS011;8820;54.604;18.226;2024-02-14T04:37:57;11.23;;;9.23;;
17404;SDS011;8820;54.604;18.226;2024-02-14T04:40:25;15.03;;;10.13;;
17404;SDS011;8820;54.604;18.226;2024-02-14T04:42:53;13.67;;;10.33;;
17404;SDS011;8820;54.604;18.226;2024-02-14T04:45:22;12.63;;;10.73;;
17404;SDS011;8820;54.604;18.226;2024-02-14T04:47:50;15.47;;;10.07;;
17404;SDS011;8820;54.604;18.226;2024-02-14T04:50:18;14.23;;;9.77;;
17404;SDS011;8820;54.604;18.226;2024-02-14T04:52:46;12.80;;;10.50;;
17404;SDS011;8820;54.604;18.226;2024-02-14T04:55:16;15.03;;;9.73;;
17404;SDS011;8820;54.604;18.226;2024-02-14T04:57:45;14.20;;;10.47;;
17404;SDS011;8820;54.604;18.226;2024-02-14T05:00:14;13.63;;;10.50;;
17404;SDS011;8820;54.604;18.226;2024-02-14T05:02:42;13.87;;;10.73;;
17404;SDS011;8820;54.604;18.226;2024-02-14T05:05:11;16.43;;;10.80;;
17404;SDS011;8820;54.604;18.226;2024-02-14T05:07:39;13.47;;;9.70;;
17404;SDS011;8820;54.604;18.226;2024-02-14T05:10:07;14.83;;;10.43;;
17404;SDS011;8820;54.604;18.226;2024-02-14T05:12:37;15.67;;;11.30;;
17404;SDS011;8820;54.604;18.226;2024-02-14T05:15:08;14.27;;;10.63;;
17404;SDS011;8820;54.604;18.226;2024-02-14T05:17:37;12.77;;;10.20;;
17404;SDS011;8820;54.604;18.226;2024-02-14T05:20:06;16.47;;;10.10;;
17404;SDS011;8820;54.604;18.226;2024-02-14T05:22:36;13.40;;;10.20;;
17404;SDS011;8820;54.604;18.226;2024-02-14T05:25:05;13.77;;;10.57;;
17404;SDS011;8820;54.604;18.226;2024-02-14T05:27:35;17.57;;;10.40;;
17404;SDS011;8820;54.604;18.226;2024-02-14T05:30:05;15.80;;;10.17;;
17404;SDS011;8820;54.604;18.226;2024-02-14T05:32:36;12.57;;;9.50;;
17404;SDS011;8820;54.604;18.226;2024-02-14T05:35:04;12.87;;;10.07;;
17404;SDS011;8820;54.604;18.226;2024-02-14T05:37:33;15.17;;;10.07;;
17404;SDS011;8820;54.604;18.226;2024-02-14T05:40:05;13.83;;;10.07;;
17404;SDS011;8820;54.604;18.226;2024-02-14T05:42:34;14.63;;;11.17;;
17404;SDS011;8820;54.604;18.226;2024-02-14T05:45:03;15.83;;;10.13;;
17404;SDS011;8820;54.604;18.226;2024-02-14T05:47:36;13.27;;;10.00;;
17404;SDS011;8820;54.604;18.226;2024-02-14T05:50:06;14.00;;;10.70;;
17404;SDS011;8820;54.604;18.226;2024-02-14T05:52:37;20.60;;;11.90;;
17404;SDS011;8820;54.604;18.226;2024-02-14T05:55:06;16.73;;;10.77;;
17404;SDS011;8820;54.604;18.226;2024-02-14T05:57:35;15.47;;;11.20;;
17404;SDS011;8820;54.604;18.226;2024-02-14T06:00:06;17.20;;;11.87;;
17404;SDS011;8820;54.604;18.226;2024-02-14T06:02:37;16.53;;;10.93;;
17404;SDS011;8820;54.604;18.226;2024-02-14T06:05:06;17.33;;;11.40;;
17404;SDS011;8820;54.604;18.226;2024-02-14T06:07:36;18.27;;;12.00;;
17404;SDS011;8820;54.604;18.226;2024-02-14T06:10:04;16.70;;;12.37;;
17404;SDS011;8820;54.604;18.226;2024-02-14T06:12:33;17.00;;;11.30;;
17404;SDS011;8820;54.604;18.226;2024-02-14T06:15:01;17.93;;;11.77;;
17404;SDS011;8820;54.604;18.226;2024-02-14T06:17:31;17.90;;;12.87;;
17404;SDS011;8820;54.604;18.226;2024-02-14T06:20:00;14.37;;;11.10;;
17404;SDS011;8820;54.604;18.226;2024-02-14T06:22:32;16.80;;;12.10;;
17404;SDS011;8820;54.604;18.226;2024-02-14T06:25:07;15.87;;;11.53;;
17404;SDS011;8820;54.604;18.226;2024-02-14T06:27:35;16.40;;;11.67;;
17404;SDS011;8820;54.604;18.226;2024-02-14T06:30:04;16.10;;;11.63;;
17404;SDS011;8820;54.604;18.226;2024-02-14T06:32:36;19.07;;;11.20;;
17404;SDS011;8820;54.604;18.226;2024-02-14T06:35:04;20.57;;;11.87;;
17404;SDS011;8820;54.604;18.226;2024-02-14T06:37:33;18.20;;;12.23;;
17404;SDS011;8820;54.604;18.226;2024-02-14T06:40:07;16.13;;;11.50;;
17404;SDS011;8820;54.604;18.226;2024-02-14T06:42:36;18.03;;;11.77;;
17404;SDS011;8820;54.604;18.226;2024-02-14T06:45:05;16.43;;;11.93;;
17404;SDS011;8820;54.604;18.226;2024-02-14T06:47:36;18.77;;;11.73;;
17404;SDS011;8820;54.604;18.226;2024-02-14T06:50:04;16.40;;;11.33;;
17404;SDS011;8820;54.604;18.226;2024-02-14T06:52:36;18.77;;;12.13;;
17404;SDS011;8820;54.604;18.226;2024-02-14T06:55:05;18.37;;;11.33;;
17404;SDS011;8820;54.604;18.226;2024-02-14T06:57:33;14.23;;;11.87;;
17404;SDS011;8820;54.604;18.226;2024-02-14T07:00:02;17.40;;;11.43;;
17404;SDS011;8820;54.604;18.226;2024-02-14T07:02:33;15.13;;;11.77;;
17404;SDS011;8820;54.604;18.226;2024-02-14T07:05:03;22.83;;;13.70;;
17404;SDS011;8820;54.604;18.226;2024-02-14T07:07:33;17.07;;;12.67;;
17404;SDS011;8820;54.604;18.226;2024-02-14T07:10:03;16.60;;;12.13;;
17404;SDS011;8820;54.604;18.226;2024-02-14T07:12:32;19.03;;;11.00;;
17404;SDS011;8820;54.604;18.226;2024-02-14T07:15:02;16.37;;;11.97;;
17404;SDS011;8820;54.604;18.226;2024-02-14T07:17:31;17.37;;;11.87;;
17404;SDS011;8820;54.604;18.226;2024-02-14T07:20:00;17.80;;;12.83;;
17404;SDS011;8820;54.604;18.226;2024-02-14T07:22:30;15.80;;;12.90;;
17404;SDS011;8820;54.604;18.226;2024-02-14T07:24:59;15.70;;;11.93;;
17404;SDS011;8820;54.604;18.226;2024-02-14T07:27:27;17.47;;;11.90;;
17404;SDS011;8820;54.604;18.226;2024-02-14T07:29:56;15.17;;;12.17;;
17404;SDS011;8820;54.604;18.226;2024-02-14T07:32:24;14.67;;;11.93;;
17404;SDS011;8820;54.604;18.226;2024-02-14T07:34:54;16.80;;;12.30;;
17404;SDS011;8820;54.604;18.226;2024-02-14T07:37:24;17.87;;;12.47;;
17404;SDS011;8820;54.604;18.226;2024-02-14T07:39:52;19.27;;;11.73;;
17404;SDS011;8820;54.604;18.226;2024-02-14T07:42:20;19.40;;;12.27;;
17404;SDS011;8820;54.604;18.226;2024-02-14T07:44:49;16.03;;;12.63;;
17404;SDS011;8820;54.604;18.226;2024-02-14T07:47:17;20.00;;;13.03;;
17404;SDS011;8820;54.604;18.226;2024-02-14T07:49:46;35.47;;;22.23;;
17404;SDS011;8820;54.604;18.226;2024-02-14T07:52:14;25.60;;;17.80;;
17404;SDS011;8820;54.604;18.226;2024-02-14T07:54:44;23.93;;;17.37;;
17404;SDS011;8820;54.604;18.226;2024-02-14T07:57:12;38.60;;;26.43;;
17404;SDS011;8820;54.604;18.226;2024-02-14T07:59:41;19.23;;;13.77;;
17404;SDS011;8820;54.604;18.226;2024-02-14T08:02:09;18.23;;;13.13;;
17404;SDS011;8820;54.604;18.226;2024-02-14T08:04:37;17.27;;;13.07;;
17404;SDS011;8820;54.604;18.226;2024-02-14T08:07:06;19.53;;;13.23;;
17404;SDS011;8820;54.604;18.226;2024-02-14T08:09:34;20.30;;;14.27;;
17404;SDS011;8820;54.604;18.226;2024-02-14T08:12:04;20.57;;;12.23;;
17404;SDS011;8820;54.604;18.226;2024-02-14T08:14:33;20.80;;;13.83;;
17404;SDS011;8820;54.604;18.226;2024-02-14T08:17:01;16.73;;;12.03;;
17404;SDS011;8820;54.604;18.226;2024-02-14T08:19:29;20.63;;;12.20;;
17404;SDS011;8820;54.604;18.226;2024-02-14T08:21:58;14.93;;;12.27;;
17404;SDS011;8820;54.604;18.226;2024-02-14T08:24:27;18.73;;;11.93;;
17404;SDS011;8820;54.604;18.226;2024-02-14T08:26:55;18.43;;;12.30;;
17404;SDS011;8820;54.604;18.226;2024-02-14T08:29:25;20.97;;;12.60;;
17404;SDS011;8820;54.604;18.226;2024-02-14T08:31:53;15.73;;;12.23;;
17404;SDS011;8820;54.604;18.226;2024-02-14T08:34:22;24.60;;;17.93;;
17404;SDS011;8820;54.604;18.226;2024-02-14T08:36:51;26.27;;;15.60;;
17404;SDS011;8820;54.604;18.226;2024-02-14T08:39:19;17.17;;;13.40;;
17404;SDS011;8820;54.604;18.226;2024-02-14T08:41:48;20.97;;;15.63;;
17404;SDS011;8820;54.604;18.226;2024-02-14T08:44:17;16.47;;;12.20;;
17404;SDS011;8820;54.604;18.226;2024-02-14T08:46:46;15.87;;;11.47;;
17404;SDS011;8820;54.604;18.226;2024-02-14T08:49:15;15.10;;;11.17;;
17404;SDS011;8820;54.604;18.226;2024-02-14T08:51:44;18.10;;;11.27;;
17404;SDS011;8820;54.604;18.226;2024-02-14T08:54:14;20.93;;;13.47;;
17404;SDS011;8820;54.604;18.226;2024-02-14T08:56:42;21.23;;;14.80;;
17404;SDS011;8820;54.604;18.226;2024-02-14T08:59:11;15.67;;;12.57;;
17404;SDS011;8820;54.604;18.226;2024-02-14T09:01:39;18.80;;;12.00;;
17404;SDS011;8820;54.604;18.226;2024-02-14T09:04:09;13.73;;;11.17;;
17404;SDS011;8820;54.604;18.226;2024-02-14T09:06:37;14.40;;;11.13;;
17404;SDS011;8820;54.604;18.226;2024-02-14T09:09:07;16.10;;;12.00;;
17404;SDS011;8820;54.604;18.226;2024-02-14T09:11:37;13.90;;;10.70;;
17404;SDS011;8820;54.604;18.226;2024-02-14T09:14:07;13.17;;;10.93;;
17404;SDS011;8820;54.604;18.226;2024-02-14T09:16:37;13.63;;;11.33;;
17404;SDS011;8820;54.604;18.226;2024-02-14T09:19:05;13.70;;;11.10;;
17404;SDS011;8820;54.604;18.226;2024-02-14T09:21:35;16.33;;;11.07;;
17404;SDS011;8820;54.604;18.226;2024-02-14T09:24:04;15.23;;;10.77;;
17404;SDS011;8820;54.604;18.226;2024-02-14T09:26:33;14.03;;;10.83;;
17404;SDS011;8820;54.604;18.226;2024-02-14T09:29:01;13.53;;;10.47;;
17404;SDS011;8820;54.604;18.226;2024-02-14T09:31:29;12.60;;;10.87;;
17404;SDS011;8820;54.604;18.226;2024-02-14T09:33:58;14.80;;;9.47;;
17404;SDS011;8820;54.604;18.226;2024-02-14T09:36:27;13.53;;;10.87;;
17404;SDS011;8820;54.604;18.226;2024-02-14T09:38:57;14.33;;;10.20;;
17404;SDS011;8820;54.604;18.226;2024-02-14T09:41:28;15.20;;;10.03;;
17404;SDS011;8820;54.604;18.226;2024-02-14T09:44:01;13.50;;;9.70;;
17404;SDS011;8820;54.604;18.226;2024-02-14T09:46:30;16.23;;;10.03;;
17404;SDS011;8820;54.604;18.226;2024-02-14T09:48:59;13.03;;;9.47;;
17404;SDS011;8820;54.604;18.226;2024-02-14T09:51:28;14.80;;;9.17;;
17404;SDS011;8820;54.604;18.226;2024-02-14T09:54:00;17.17;;;9.67;;
17404;SDS011;8820;54.604;18.226;2024-02-14T09:56:28;14.20;;;8.97;;
17404;SDS011;8820;54.604;18.226;2024-02-14T09:58:57;11.83;;;7.60;;
17404;SDS011;8820;54.604;18.226;2024-02-14T10:01:27;13.03;;;8.67;;
17404;SDS011;8820;54.604;18.226;2024-02-14T10:03:55;11.33;;;7.53;;
17404;SDS011;8820;54.604;18.226;2024-02-14T10:06:26;13.10;;;8.10;;
17404;SDS011;8820;54.604;18.226;2024-02-14T10:08:54;12.27;;;9.10;;
17404;SDS011;8820;54.604;18.226;2024-02-14T10:11:29;24.90;;;14.10;;
17404;SDS011;8820;54.604;18.226;2024-02-14T10:13:58;12.33;;;8.90;;
17404;SDS011;8820;54.604;18.226;2024-02-14T10:16:29;15.27;;;9.80;;
17404;SDS011;8820;54.604;18.226;2024-02-14T10:18:58;9.90;;;7.37;;
17404;SDS011;8820;54.604;18.226;2024-02-14T10:21:27;10.43;;;7.40;;
17404;SDS011;8820;54.604;18.226;2024-02-14T10:23:59;16.67;;;9.57;;
17404;SDS011;8820;54.604;18.226;2024-02-14T10:26:29;15.57;;;8.50;;
17404;SDS011;8820;54.604;18.226;2024-02-14T10:28:58;22.20;;;12.73;;
17404;SDS011;8820;54.604;18.226;2024-02-14T10:31:27;15.60;;;10.77;;
17404;SDS011;8820;54.604;18.226;2024-02-14T10:33:55;10.87;;;7.90;;
17404;SDS011;8820;54.604;18.226;2024-02-14T10:36:24;11.57;;;7.70;;
17404;SDS011;8820;54.604;18.226;2024-02-14T10:38:52;9.97;;;6.73;;
17404;SDS011;8820;54.604;18.226;2024-02-14T10:41:24;10.83;;;7.30;;
17404;SDS011;8820;54.604;18.226;2024-02-14T10:43:59;10.53;;;7.33;;
17404;SDS011;8820;54.604;18.226;2024-02-14T10:46:30;11.20;;;6.83;;
17404;SDS011;8820;54.604;18.226;2024-02-14T10:49:02;11.47;;;7.33;;
17404;SDS011;8820;54.604;18.226;2024-02-14T10:51:33;14.47;;;8.97;;
17404;SDS011;8820;54.604;18.226;2024-02-14T10:54:03;7.97;;;6.33;;
17404;SDS011;8820;54.604;18.226;2024-02-14T10:56:37;8.60;;;6.50;;
17404;SDS011;8820;54.604;18.226;2024-02-14T10:59:09;9.13;;;5.67;;
17404;SDS011;8820;54.604;18.226;2024-02-14T11:01:40;6.87;;;5.70;;
17404;SDS011;8820;54.604;18.226;2024-02-14T11:04:10;7.47;;;5.83;;
17404;SDS011;8820;54.604;18.226;2024-02-14T11:06:45;8.23;;;5.40;;
17404;SDS011;8820;54.604;18.226;2024-02-14T11:09:14;7.13;;;4.87;;
17404;SDS011;8820;54.604;18.226;2024-02-14T11:11:43;8.73;;;4.83;;
17404;SDS011;8820;54.604;18.226;2024-02-14T11:14:15;6.40;;;5.80;;
17404;SDS011;8820;54.604;18.226;2024-02-14T11:16:46;5.80;;;5.13;;
17404;SDS011;8820;54.604;18.226;2024-02-14T11:19:14;6.90;;;5.43;;
17404;SDS011;8820;54.604;18.226;2024-02-14T11:21:44;8.40;;;6.20;;
17404;SDS011;8820;54.604;18.226;2024-02-14T11:24:15;6.33;;;5.33;;
17404;SDS011;8820;54.604;18.226;2024-02-14T11:26:47;6.73;;;6.13;;
17404;SDS011;8820;54.604;18.226;2024-02-14T11:29:19;8.47;;;6.47;;
17404;SDS011;8820;54.604;18.226;2024-02-14T11:31:56;9.13;;;6.70;;
17404;SDS011;8820;54.604;18.226;2024-02-14T11:34:26;10.10;;;5.83;;
17404;SDS011;8820;54.604;18.226;2024-02-14T11:36:55;6.17;;;4.90;;
17404;SDS011;8820;54.604;18.226;2024-02-14T11:39:24;6.50;;;5.63;;
17404;SDS011;8820;54.604;18.226;2024-02-14T11:41:56;9.63;;;6.17;;
17404;SDS011;8820;54.604;18.226;2024-02-14T11:44:27;10.93;;;6.40;;
17404;SDS011;8820;54.604;18.226;2024-02-14T11:46:56;8.50;;;6.37;;
17404;SDS011;8820;54.604;18.226;2024-02-14T11:49:25;5.83;;;5.20;;
17404;SDS011;8820;54.604;18.226;2024-02-14T11:51:53;7.47;;;6.03;;
17404;SDS011;8820;54.604;18.226;2024-02-14T11:54:21;7.10;;;5.67;;
17404;SDS011;8820;54.604;18.226;2024-02-14T11:56:50;8.27;;;5.30;;
17404;SDS011;8820;54.604;18.226;2024-02-14T11:59:18;8.17;;;5.80;;
17404;SDS011;8820;54.604;18.226;2024-02-14T12:01:51;11.60;;;6.13;;
17404;SDS011;8820;54.604;18.226;2024-02-14T12:04:21;8.47;;;5.70;;
17404;SDS011;8820;54.604;18.226;2024-02-14T12:06:49;7.70;;;5.80;;
17404;SDS011;8820;54.604;18.226;2024-02-14T12:09:18;9.37;;;6.13;;
17404;SDS011;8820;54.604;18.226;2024-02-14T12:11:46;7.93;;;6.17;;
17404;SDS011;8820;54.604;18.226;2024-02-14T12:14:16;7.27;;;5.60;;
17404;SDS011;8820;54.604;18.226;2024-02-14T12:16:55;10.20;;;6.17;;
17404;SDS011;8820;54.604;18.226;2024-02-14T12:19:27;10.53;;;5.70;;
17404;SDS011;8820;54.604;18.226;2024-02-14T12:21:58;8.23;;;6.40;;
17404;SDS011;8820;54.604;18.226;2024-02-14T12:24:28;7.77;;;6.47;;
17404;SDS011;8820;54.604;18.226;2024-02-14T12:26:56;9.47;;;6.77;;
17404;SDS011;8820;54.604;18.226;2024-02-14T12:29:24;9.27;;;6.10;;
17404;SDS011;8820;54.604;18.226;2024-02-14T12:32:04;7.63;;;6.00;;
17404;SDS011;8820;54.604;18.226;2024-02-14T12:34:32;8.00;;;4.73;;
17404;SDS011;8820;54.604;18.226;2024-02-14T12:37:02;10.53;;;6.13;;
17404;SDS011;8820;54.604;18.226;2024-02-14T12:39:32;5.70;;;5.03;;
17404;SDS011;8820;54.604;18.226;2024-02-14T12:42:00;6.63;;;5.30;;
17404;SDS011;8820;54.604;18.226;2024-02-14T12:44:29;8.33;;;5.50;;
17404;SDS011;8820;54.604;18.226;2024-02-14T12:46:58;7.17;;;5.60;;
17404;SDS011;8820;54.604;18.226;2024-02-14T12:49:27;9.00;;;7.77;;
17404;SDS011;8820;54.604;18.226;2024-02-14T12:51:56;6.20;;;5.40;;
17404;SDS011;8820;54.604;18.226;2024-02-14T12:54:24;6.17;;;5.40;;
17404;SDS011;8820;54.604;18.226;2024-02-14T12:56:52;5.93;;;5.30;;
17404;SDS011;8820;54.604;18.226;2024-02-14T12:59:21;11.80;;;6.60;;
17404;SDS011;8820;54.604;18.226;2024-02-14T13:01:49;21.07;;;12.07;;
17404;SDS011;8820;54.604;18.226;2024-02-14T13:04:17;8.43;;;6.03;;
17404;SDS011;8820;54.604;18.226;2024-02-14T13:06:48;6.87;;;5.70;;
17404;SDS011;8820;54.604;18.226;2024-02-14T13:09:16;6.80;;;5.67;;
17404;SDS011;8820;54.604;18.226;2024-02-14T13:11:45;10.33;;;5.30;;
17404;SDS011;8820;54.604;18.226;2024-02-14T13:14:13;8.20;;;4.97;;
17404;SDS011;8820;54.604;18.226;2024-02-14T13:16:42;6.10;;;5.03;;
17404;SDS011;8820;54.604;18.226;2024-02-14T13:19:10;7.23;;;4.73;;
17404;SDS011;8820;54.604;18.226;2024-02-14T13:21:42;9.33;;;5.53;;
17404;SDS011;8820;54.604;18.226;2024-02-14T13:24:13;8.33;;;5.90;;
17404;SDS011;8820;54.604;18.226;2024-02-14T13:26:41;6.83;;;5.33;;
17404;SDS011;8820;54.604;18.226;2024-02-14T13:29:10;6.33;;;4.73;;
17404;SDS011;8820;54.604;18.226;2024-02-14T13:31:38;10.63;;;5.13;;
17404;SDS011;8820;54.604;18.226;2024-02-14T13:34:07;6.83;;;4.60;;
17404;SDS011;8820;54.604;18.226;2024-02-14T13:36:36;6.97;;;5.03;;
17404;SDS011;8820;54.604;18.226;2024-02-14T13:39:04;9.90;;;5.70;;
17404;SDS011;8820;54.604;18.226;2024-02-14T13:41:34;5.43;;;4.73;;
17404;SDS011;8820;54.604;18.226;2024-02-14T13:44:04;24.27;;;6.70;;
17404;SDS011;8820;54.604;18.226;2024-02-14T13:46:35;5.17;;;4.60;;
17404;SDS011;8820;54.604;18.226;2024-02-14T13:49:03;11.00;;;6.20;;
17404;SDS011;8820;54.604;18.226;2024-02-14T13:51:32;5.87;;;4.97;;
17404;SDS011;8820;54.604;18.226;2024-02-14T13:54:00;8.17;;;5.47;;
17404;SDS011;8820;54.604;18.226;2024-02-14T13:56:28;7.57;;;5.57;;
17404;SDS011;8820;54.604;18.226;2024-02-14T13:58:59;7.03;;;4.73;;
17404;SDS011;8820;54.604;18.226;2024-02-14T14:01:27;6.43;;;5.53;;
17404;SDS011;8820;54.604;18.226;2024-02-14T14:03:56;8.40;;;4.90;;
17404;SDS011;8820;54.604;18.226;2024-02-14T14:06:24;11.00;;;5.93;;
17404;SDS011;8820;54.604;18.226;2024-02-14T14:08:53;7.43;;;5.37;;
17404;SDS011;8820;54.604;18.226;2024-02-14T14:11:21;6.80;;;5.90;;
17404;SDS011;8820;54.604;18.226;2024-02-14T14:13:49;8.27;;;6.37;;
17404;SDS011;8820;54.604;18.226;2024-02-14T14:16:19;9.83;;;6.23;;
17404;SDS011;8820;54.604;18.226;2024-02-14T14:18:48;6.97;;;5.93;;
17404;SDS011;8820;54.604;18.226;2024-02-14T14:21:19;10.83;;;7.70;;
17404;SDS011;8820;54.604;18.226;2024-02-14T14:23:48;7.80;;;6.43;;
17404;SDS011;8820;54.604;18.226;2024-02-14T14:26:16;9.20;;;6.73;;
17404;SDS011;8820;54.604;18.226;2024-02-14T14:28:46;10.93;;;8.13;;
17404;SDS011;8820;54.604;18.226;2024-02-14T14:31:14;9.77;;;6.00;;
17404;SDS011;8820;54.604;18.226;2024-02-14T14:33:44;13.23;;;7.17;;
17404;SDS011;8820;54.604;18.226;2024-02-14T14:36:12;8.30;;;6.77;;
17404;SDS011;8820;54.604;18.226;2024-02-14T14:38:41;11.63;;;7.23;;
17404;SDS011;8820;54.604;18.226;2024-02-14T14:41:09;12.40;;;6.80;;
17404;SDS011;8820;54.604;18.226;2024-02-14T14:43:38;10.70;;;7.23;;
17404;SDS011;8820;54.604;18.226;2024-02-14T14:46:06;9.10;;;6.83;;